createdAt,value
2018-08-04T00:00:48.862Z,2.87
2018-08-04T00:03:17.410Z,2.90
2018-08-04T00:05:45.747Z,2.87
2018-08-04T00:08:14.118Z,3.00
2018-08-04T00:10:42.546Z,2.83
2018-08-04T00:13:10.885Z,3.07
2018-08-04T00:15:39.249Z,3.03
2018-08-04T00:18:07.593Z,3.00
2018-08-04T00:20:35.934Z,3.00
2018-08-04T00:23:04.280Z,3.07
2018-08-04T00:25:32.635Z,2.80
2018-08-04T00:28:00.979Z,2.73
2018-08-04T00:30:29.306Z,3.43
2018-08-04T00:32:57.663Z,2.90
2018-08-04T00:35:25.966Z,2.83
2018-08-04T00:37:54.394Z,2.83
2018-08-04T00:40:22.764Z,2.97
2018-08-04T00:42:51.179Z,3.00
2018-08-04T00:45:19.552Z,2.70
2018-08-04T00:47:47.871Z,3.30
2018-08-04T00:50:16.306Z,3.00
2018-08-04T00:52:44.462Z,3.00
2018-08-04T00:55:12.818Z,2.70
2018-08-04T00:57:41.125Z,3.13
2018-08-04T01:00:09.512Z,3.00
2018-08-04T01:02:37.910Z,2.87
2018-08-04T01:05:06.272Z,2.80
2018-08-04T01:07:34.384Z,2.97
2018-08-04T01:10:04.462Z,3.00
2018-08-04T01:12:33.047Z,3.30
2018-08-04T01:15:01.835Z,3.00
2018-08-04T01:17:30.746Z,3.17
2018-08-04T01:20:05.994Z,3.30
2018-08-04T01:22:36.006Z,2.83
2018-08-04T01:25:05.307Z,3.20
2018-08-04T01:27:33.734Z,3.50
2018-08-04T01:30:02.103Z,3.70
2018-08-04T01:32:30.449Z,3.40
2018-08-04T01:34:58.847Z,3.63
2018-08-04T01:37:27.339Z,3.60
2018-08-04T01:39:55.722Z,3.93
2018-08-04T01:42:24.071Z,3.60
2018-08-04T01:44:52.451Z,3.90
2018-08-04T01:47:20.844Z,4.33
2018-08-04T01:49:49.329Z,4.30
2018-08-04T01:52:17.714Z,4.40
2018-08-04T01:54:46.097Z,4.10
2018-08-04T01:57:14.438Z,3.80
2018-08-04T01:59:42.816Z,4.33
2018-08-04T02:02:11.193Z,4.13
2018-08-04T02:04:39.614Z,4.03
2018-08-04T02:07:07.963Z,4.17
2018-08-04T02:09:36.326Z,4.13
2018-08-04T02:12:04.678Z,3.87
2018-08-04T02:14:33.146Z,4.00
2018-08-04T02:17:01.522Z,3.80
2018-08-04T02:19:29.912Z,4.13
2018-08-04T02:21:58.307Z,3.70
2018-08-04T02:24:26.624Z,4.03
2018-08-04T02:26:54.990Z,4.03
2018-08-04T02:29:23.377Z,3.70
2018-08-04T02:31:51.798Z,3.97
2018-08-04T02:34:20.182Z,3.63
2018-08-04T02:36:48.520Z,3.90
2018-08-04T02:39:16.886Z,4.17
2018-08-04T02:41:45.266Z,3.53
2018-08-04T02:44:13.590Z,4.20
2018-08-04T02:46:41.951Z,3.90
2018-08-04T02:49:10.312Z,3.47
2018-08-04T02:51:38.673Z,3.47
2018-08-04T02:54:07.031Z,3.37
2018-08-04T02:56:35.390Z,3.67
2018-08-04T02:59:03.731Z,3.73
2018-08-04T03:01:32.120Z,3.53
2018-08-04T03:04:00.466Z,3.83
2018-08-04T03:06:29.074Z,3.80
2018-08-04T03:08:57.451Z,3.73
2018-08-04T03:11:25.897Z,3.63
2018-08-04T03:13:54.278Z,3.57
2018-08-04T03:16:22.595Z,3.40
2018-08-04T03:18:50.968Z,3.40
2018-08-04T03:21:19.419Z,3.50
2018-08-04T03:23:47.774Z,3.57
2018-08-04T03:26:16.167Z,3.30
2018-08-04T03:28:44.554Z,3.07
2018-08-04T03:31:12.928Z,3.27
2018-08-04T03:33:41.282Z,2.87
2018-08-04T03:36:09.629Z,3.00
2018-08-04T03:38:38.045Z,3.17
2018-08-04T03:41:06.386Z,3.10
2018-08-04T03:43:34.711Z,3.00
2018-08-04T03:46:03.059Z,2.60
2018-08-04T03:48:31.370Z,2.90
2018-08-04T03:50:59.744Z,3.00
2018-08-04T03:53:28.159Z,3.40
2018-08-04T03:55:56.512Z,3.03
2018-08-04T03:58:24.916Z,3.10
2018-08-04T04:00:53.403Z,2.93
2018-08-04T04:03:21.768Z,3.33
2018-08-04T04:05:50.133Z,3.60
2018-08-04T04:08:18.483Z,3.10
2018-08-04T04:10:46.886Z,3.27
2018-08-04T04:13:15.230Z,3.73
2018-08-04T04:15:43.586Z,3.87
2018-08-04T04:18:11.634Z,4.07
2018-08-04T04:20:40.023Z,4.20
2018-08-04T04:23:08.439Z,3.87
2018-08-04T04:25:36.822Z,3.57
2018-08-04T04:28:05.230Z,2.83
2018-08-04T04:30:33.904Z,3.20
2018-08-04T04:33:02.223Z,3.07
2018-08-04T04:35:30.566Z,3.23
2018-08-04T04:37:59.019Z,3.00
2018-08-04T04:40:27.398Z,3.70
2018-08-04T04:42:55.713Z,3.37
2018-08-04T04:45:24.216Z,3.40
2018-08-04T04:47:52.613Z,3.60
2018-08-04T04:50:21.024Z,3.80
2018-08-04T04:52:49.420Z,4.00
2018-08-04T04:55:17.790Z,3.60
2018-08-04T04:57:46.099Z,3.63
2018-08-04T05:00:14.492Z,3.87
2018-08-04T05:02:43.143Z,4.00
2018-08-04T05:05:11.525Z,3.57
2018-08-04T05:07:39.898Z,3.90
2018-08-04T05:10:08.709Z,4.20
2018-08-04T05:12:37.059Z,4.20
2018-08-04T05:15:06.250Z,4.00
2018-08-04T05:17:34.641Z,3.90
2018-08-04T05:20:03.331Z,4.07
2018-08-04T05:22:31.774Z,4.30
2018-08-04T05:25:00.136Z,3.97
2018-08-04T05:27:28.512Z,3.70
2018-08-04T05:29:56.908Z,4.10
2018-08-04T05:32:25.263Z,4.83
2018-08-04T05:34:53.382Z,4.50
2018-08-04T05:37:21.811Z,4.47
2018-08-04T05:39:50.150Z,4.37
2018-08-04T05:42:18.526Z,4.17
2018-08-04T05:44:46.928Z,4.70
2018-08-04T05:47:16.014Z,4.73
2018-08-04T05:49:44.331Z,4.70
2018-08-04T05:52:12.665Z,4.07
2018-08-04T05:54:41.063Z,4.43
2018-08-04T05:57:09.427Z,4.20
2018-08-04T05:59:37.785Z,4.33
2018-08-04T06:02:06.161Z,3.80
2018-08-04T06:04:34.615Z,3.83
2018-08-04T06:07:02.962Z,3.70
2018-08-04T06:09:31.588Z,3.90
2018-08-04T06:11:59.953Z,3.23
2018-08-04T06:14:28.561Z,3.97
2018-08-04T06:16:56.872Z,3.40
2018-08-04T06:19:25.283Z,3.57
2018-08-04T06:21:53.580Z,3.60
2018-08-04T06:24:21.961Z,3.40
2018-08-04T06:26:50.374Z,3.13
2018-08-04T06:29:18.823Z,3.00
2018-08-04T06:31:47.194Z,3.00
2018-08-04T06:34:15.580Z,2.90
2018-08-04T06:36:43.997Z,2.60
2018-08-04T06:39:12.399Z,2.77
2018-08-04T06:41:40.555Z,2.90
2018-08-04T06:44:08.909Z,2.77
2018-08-04T06:46:37.734Z,2.60
2018-08-04T06:49:06.146Z,2.43
2018-08-04T06:51:34.478Z,2.33
2018-08-04T06:54:02.970Z,2.23
2018-08-04T06:56:31.287Z,2.63
2018-08-04T06:58:59.639Z,2.40
2018-08-04T07:01:27.769Z,2.50
2018-08-04T07:03:56.189Z,2.30
2018-08-04T07:06:24.304Z,2.20
2018-08-04T07:08:52.664Z,2.27
2018-08-04T07:11:21.037Z,2.30
2018-08-04T07:13:49.426Z,2.30
2018-08-04T07:16:17.779Z,2.00
2018-08-04T07:18:46.271Z,2.57
2018-08-04T07:21:14.627Z,2.40
2018-08-04T07:23:43.016Z,2.20
2018-08-04T07:26:11.419Z,2.50
2018-08-04T07:28:39.855Z,2.70
2018-08-04T07:31:08.311Z,2.30
2018-08-04T07:33:36.723Z,2.30
2018-08-04T07:36:05.035Z,2.60
2018-08-04T07:38:33.484Z,2.60
2018-08-04T07:41:01.821Z,2.50
2018-08-04T07:43:30.210Z,2.43
2018-08-04T07:45:58.568Z,2.80
2018-08-04T07:48:26.902Z,2.47
2018-08-04T07:50:55.887Z,3.20
2018-08-04T07:53:24.292Z,2.70
2018-08-04T07:55:52.683Z,2.40
2018-08-04T07:58:21.027Z,2.70
2018-08-04T08:00:49.363Z,2.43
2018-08-04T08:03:17.783Z,2.50
2018-08-04T08:05:46.136Z,2.70
2018-08-04T08:08:14.505Z,2.33
2018-08-04T08:10:43.020Z,2.20
2018-08-04T08:13:11.309Z,2.27
2018-08-04T08:15:39.707Z,2.20
2018-08-04T08:18:08.024Z,2.50
2018-08-04T08:20:36.459Z,2.30
2018-08-04T08:23:04.611Z,2.23
2018-08-04T08:25:32.927Z,2.53
2018-08-04T08:28:01.286Z,2.40
2018-08-04T08:30:30.050Z,2.37
2018-08-04T08:32:58.478Z,2.40
2018-08-04T08:35:26.845Z,2.33
2018-08-04T08:37:55.284Z,2.53
2018-08-04T08:40:23.629Z,2.30
2018-08-04T08:42:51.972Z,2.20
2018-08-04T08:45:25.759Z,2.37
2018-08-04T08:47:54.135Z,2.20
2018-08-04T08:50:22.432Z,2.20
2018-08-04T08:52:50.782Z,2.30
2018-08-04T08:55:19.102Z,2.30
2018-08-04T08:57:48.006Z,2.20
2018-08-04T09:00:16.369Z,2.60
2018-08-04T09:02:44.469Z,2.37
2018-08-04T09:05:12.782Z,2.60
2018-08-04T09:07:41.114Z,2.40
2018-08-04T09:10:13.051Z,2.20
2018-08-04T09:12:41.913Z,2.10
2018-08-04T09:15:10.257Z,2.20
2018-08-04T09:17:38.605Z,2.10
2018-08-04T09:20:07.835Z,2.10
2018-08-04T09:22:36.236Z,2.20
2018-08-04T09:25:05.701Z,2.13
2018-08-04T09:27:34.277Z,2.00
2018-08-04T09:30:02.663Z,2.10
2018-08-04T09:32:31.030Z,2.30
2018-08-04T09:34:59.731Z,2.43
2018-08-04T09:37:28.091Z,2.40
2018-08-04T09:39:56.222Z,2.10
2018-08-04T09:42:24.575Z,2.27
2018-08-04T09:44:52.939Z,2.00
2018-08-04T09:47:21.261Z,1.93
2018-08-04T09:49:49.555Z,2.00
2018-08-04T09:52:18.051Z,2.30
2018-08-04T09:54:46.363Z,2.50
2018-08-04T09:57:14.706Z,2.10
2018-08-04T09:59:43.131Z,2.23
2018-08-04T10:02:12.522Z,2.03
2018-08-04T10:04:41.894Z,2.20
2018-08-04T10:07:10.740Z,1.90
2018-08-04T10:09:39.069Z,2.53
2018-08-04T10:12:07.446Z,2.60
2018-08-04T10:14:35.782Z,3.30
2018-08-04T10:17:10.039Z,3.17
2018-08-04T10:19:38.601Z,3.43
2018-08-04T10:22:06.955Z,3.70
2018-08-04T10:24:35.342Z,3.10
2018-08-04T10:27:03.697Z,3.33
2018-08-04T10:29:32.094Z,3.53
2018-08-04T10:32:00.445Z,3.37
2018-08-04T10:34:28.755Z,3.37
2018-08-04T10:36:57.093Z,3.17
2018-08-04T10:39:25.443Z,3.07
2018-08-04T10:41:53.820Z,3.60
2018-08-04T10:44:22.119Z,3.63
2018-08-04T10:46:50.538Z,2.87
2018-08-04T10:49:18.902Z,2.90
2018-08-04T10:51:48.239Z,3.00
2018-08-04T10:54:16.820Z,3.00
2018-08-04T10:56:45.128Z,2.60
2018-08-04T10:59:13.472Z,2.33
2018-08-04T11:01:41.824Z,2.90
2018-08-04T11:04:10.510Z,2.60
2018-08-04T11:06:39.110Z,14.13
